createdAt,value
2023-04-17T00:01:12.858Z,13.57
2023-04-17T00:03:39.464Z,14.35
2023-04-17T00:06:06.361Z,13.82
2023-04-17T00:08:34.008Z,14.13
2023-04-17T00:11:07.570Z,13.57
2023-04-17T00:13:35.339Z,13.48
2023-04-17T00:16:01.874Z,14.68
2023-04-17T00:18:28.452Z,14.00
2023-04-17T00:20:56.496Z,14.52
2023-04-17T00:23:23.006Z,15.75
2023-04-17T00:25:49.475Z,14.55
2023-04-17T00:28:15.997Z,14.52
2023-04-17T00:30:42.473Z,14.65
2023-04-17T00:33:08.999Z,14.65
2023-04-17T00:35:35.482Z,14.55
2023-04-17T00:38:02.005Z,13.48
2023-04-17T00:40:28.476Z,14.13
2023-04-17T00:43:00.538Z,14.60
2023-04-17T00:45:27.229Z,14.93
2023-04-17T00:47:54.154Z,14.93
2023-04-17T00:50:20.885Z,14.48
2023-04-17T00:52:47.487Z,13.88
2023-04-17T00:55:14.831Z,14.73
2023-04-17T00:57:42.358Z,14.77
2023-04-17T01:00:10.262Z,14.82
2023-04-17T01:02:37.391Z,14.85
2023-04-17T01:05:04.146Z,15.68
2023-04-17T01:07:31.041Z,14.77
2023-04-17T01:09:57.556Z,15.50
2023-04-17T01:12:25.044Z,14.82
2023-04-17T01:14:56.483Z,15.68
2023-04-17T01:17:23.618Z,14.30
2023-04-17T01:19:50.649Z,15.13
2023-04-17T01:22:17.179Z,14.82
2023-04-17T01:24:43.969Z,15.60
2023-04-17T01:27:13.698Z,15.73
2023-04-17T01:29:43.055Z,15.80
2023-04-17T01:32:09.753Z,15.65
2023-04-17T01:34:37.636Z,15.93
2023-04-17T01:37:04.607Z,15.75
2023-04-17T01:39:31.279Z,15.93
2023-04-17T01:41:57.899Z,16.75
2023-04-17T01:44:24.410Z,16.10
2023-04-17T01:46:51.238Z,17.40
2023-04-17T01:49:17.839Z,17.20
2023-04-17T01:51:44.331Z,16.10
2023-04-17T01:54:10.954Z,16.60
2023-04-17T01:56:37.622Z,15.57
2023-04-17T01:59:04.174Z,15.50
2023-04-17T02:01:31.295Z,16.77
2023-04-17T02:03:58.215Z,16.20
2023-04-17T02:06:27.314Z,15.27
2023-04-17T02:08:53.990Z,16.23
2023-04-17T02:11:20.866Z,15.65
2023-04-17T02:13:50.634Z,17.03
2023-04-17T02:16:17.185Z,16.23
2023-04-17T02:18:43.759Z,15.95
2023-04-17T02:21:10.349Z,15.70
2023-04-17T02:23:36.854Z,15.43
2023-04-17T02:26:04.045Z,15.57
2023-04-17T02:28:30.618Z,15.75
2023-04-17T02:33:29.639Z,15.15
2023-04-17T02:35:56.190Z,15.60
2023-04-17T02:38:30.510Z,15.77
2023-04-17T02:40:57.817Z,15.98
2023-04-17T02:43:25.055Z,15.63
2023-04-17T02:45:51.593Z,16.45
2023-04-17T02:48:18.507Z,16.30
2023-04-17T02:50:45.051Z,15.35
2023-04-17T02:53:16.675Z,15.50
2023-04-17T02:55:43.170Z,15.82
2023-04-17T02:58:09.726Z,14.40
2023-04-17T03:00:36.339Z,15.23
2023-04-17T03:03:03.440Z,15.77
2023-04-17T03:05:30.678Z,16.63
2023-04-17T03:07:59.797Z,17.13
2023-04-17T03:10:30.624Z,15.80
2023-04-17T03:12:57.135Z,15.77
2023-04-17T03:15:23.650Z,17.10
2023-04-17T03:17:50.357Z,17.75
2023-04-17T03:20:17.860Z,16.98
2023-04-17T03:22:44.447Z,16.52
2023-04-17T03:25:11.484Z,17.20
2023-04-17T03:27:44.640Z,17.48
2023-04-17T03:30:12.718Z,16.67
2023-04-17T03:32:39.474Z,18.20
2023-04-17T03:35:06.513Z,17.73
2023-04-17T03:37:33.766Z,16.77
2023-04-17T03:40:00.749Z,18.25
2023-04-17T03:42:27.565Z,16.98
2023-04-17T03:44:55.359Z,17.15
2023-04-17T03:47:23.076Z,18.27
2023-04-17T03:49:49.697Z,18.63
2023-04-17T03:52:16.899Z,19.13
2023-04-17T03:54:45.640Z,18.80
2023-04-17T03:57:12.961Z,18.48
2023-04-17T03:59:39.486Z,18.50
2023-04-17T04:02:07.134Z,19.73
2023-04-17T04:04:35.820Z,19.48
2023-04-17T04:07:08.686Z,17.50
2023-04-17T04:09:36.146Z,19.33
2023-04-17T04:12:07.146Z,19.42
2023-04-17T04:14:41.623Z,18.60
2023-04-17T04:17:08.591Z,20.10
2023-04-17T04:19:35.120Z,19.63
2023-04-17T04:22:03.034Z,20.42
2023-04-17T04:24:38.722Z,20.33
2023-04-17T04:27:05.485Z,19.48
2023-04-17T04:29:35.261Z,20.95
2023-04-17T04:32:04.737Z,19.90
2023-04-17T04:34:37.302Z,20.23
2023-04-17T04:37:03.820Z,20.02
2023-04-17T04:39:40.265Z,20.20
2023-04-17T04:42:14.830Z,21.42
2023-04-17T04:44:55.438Z,20.95
2023-04-17T04:47:25.067Z,19.63
2023-04-17T04:49:52.882Z,19.75
2023-04-17T04:52:21.238Z,19.90
2023-04-17T04:54:52.998Z,20.40
2023-04-17T04:57:19.900Z,21.95
2023-04-17T04:59:51.697Z,21.80
2023-04-17T05:02:33.095Z,21.58
2023-04-17T05:05:00.668Z,21.15
2023-04-17T05:07:27.955Z,21.58
2023-04-17T05:09:55.092Z,22.20
2023-04-17T05:12:21.654Z,22.55
2023-04-17T05:14:48.756Z,23.90
2023-04-17T05:17:17.163Z,22.10
2023-04-17T05:19:43.886Z,22.67
2023-04-17T05:22:10.740Z,22.58
2023-04-17T05:24:47.885Z,22.85
2023-04-17T05:27:16.561Z,23.42
2023-04-17T05:29:43.595Z,23.95
2023-04-17T05:32:10.446Z,23.58
2023-04-17T05:34:49.314Z,24.77
2023-04-17T05:37:18.981Z,22.52
2023-04-17T05:39:45.556Z,23.98
2023-04-17T05:42:12.050Z,25.05
2023-04-17T05:44:39.854Z,25.75
2023-04-17T05:47:07.451Z,27.15
2023-04-17T05:49:33.988Z,27.02
2023-04-17T05:52:00.586Z,26.00
2023-04-17T05:54:28.987Z,25.25
2023-04-17T05:56:56.721Z,27.90
2023-04-17T05:59:23.631Z,24.88
2023-04-17T06:01:50.938Z,26.50
2023-04-17T06:04:21.021Z,27.60
2023-04-17T06:06:48.987Z,28.50
2023-04-17T06:09:15.924Z,27.48
2023-04-17T06:11:42.412Z,29.10
2023-04-17T06:14:08.991Z,28.77
2023-04-17T06:16:36.491Z,27.65
2023-04-17T06:19:03.088Z,27.48
2023-04-17T06:21:29.710Z,27.05
2023-04-17T06:23:59.928Z,29.30
2023-04-17T06:26:26.522Z,26.75
2023-04-17T06:28:53.024Z,28.38
2023-04-17T06:31:19.856Z,30.83
2023-04-17T06:33:49.777Z,32.22
2023-04-17T06:36:17.523Z,30.38
2023-04-17T06:41:17.271Z,29.30
2023-04-17T06:43:43.803Z,30.63
2023-04-17T06:46:13.280Z,27.52
2023-04-17T06:48:39.882Z,29.17
2023-04-17T06:51:06.464Z,31.17
2023-04-17T06:53:32.992Z,27.65
2023-04-17T06:55:59.833Z,27.15
2023-04-17T06:58:26.376Z,26.95
2023-04-17T07:00:52.871Z,30.83
2023-04-17T07:03:19.632Z,30.13
2023-04-17T07:05:46.617Z,28.98
2023-04-17T07:08:13.571Z,27.75
2023-04-17T07:10:40.124Z,28.90
2023-04-17T07:13:06.992Z,30.23
2023-04-17T07:15:33.525Z,28.52
2023-04-17T07:18:00.242Z,29.58
2023-04-17T07:20:26.913Z,28.58
2023-04-17T07:22:53.452Z,26.50
2023-04-17T07:25:20.151Z,26.35
2023-04-17T07:27:46.787Z,25.45
2023-04-17T07:30:13.396Z,24.33
2023-04-17T07:32:39.896Z,24.15
2023-04-17T07:35:06.839Z,24.80
2023-04-17T07:37:34.379Z,25.10
2023-04-17T07:40:00.871Z,25.33
2023-04-17T07:42:28.452Z,26.60
2023-04-17T07:44:54.948Z,25.75
2023-04-17T07:47:21.622Z,27.65
2023-04-17T07:49:49.173Z,25.83
2023-04-17T07:52:17.819Z,23.20
2023-04-17T07:54:44.838Z,21.50
2023-04-17T07:57:11.381Z,21.05
2023-04-17T07:59:38.058Z,20.55
2023-04-17T08:02:04.937Z,20.98
2023-04-17T08:04:33.117Z,22.45
2023-04-17T08:06:59.908Z,21.55
2023-04-17T08:09:26.408Z,20.75
2023-04-17T08:11:57.698Z,22.50
2023-04-17T08:14:25.370Z,23.67
2023-04-17T08:16:52.310Z,21.23
2023-04-17T08:19:18.961Z,22.45
2023-04-17T08:21:47.556Z,21.25
2023-04-17T08:24:14.268Z,20.05
2023-04-17T08:26:40.807Z,19.65
2023-04-17T08:29:08.125Z,20.98
2023-04-17T08:31:36.847Z,21.30
2023-04-17T08:34:13.506Z,21.23
2023-04-17T08:36:41.334Z,21.63
2023-04-17T08:39:09.864Z,22.42
2023-04-17T08:41:43.472Z,21.42
2023-04-17T08:44:10.738Z,21.02
2023-04-17T08:46:38.187Z,23.05
2023-04-17T08:49:04.873Z,20.92
2023-04-17T08:51:31.764Z,21.75
2023-04-17T08:53:58.372Z,21.13
2023-04-17T08:56:25.038Z,22.00
2023-04-17T08:58:51.552Z,19.05
2023-04-17T09:01:19.882Z,21.23
2023-04-17T09:03:49.122Z,20.20
2023-04-17T09:06:16.024Z,19.88
2023-04-17T09:09:00.306Z,19.10
2023-04-17T09:11:26.824Z,17.77
2023-04-17T09:13:53.878Z,19.05
2023-04-17T09:16:20.803Z,19.40
2023-04-17T09:18:48.078Z,18.05
2023-04-17T09:21:18.711Z,19.65
2023-04-17T09:23:50.368Z,17.48
2023-04-17T09:26:21.305Z,16.88
2023-04-17T09:29:11.087Z,17.08
2023-04-17T09:31:39.541Z,15.60
2023-04-17T09:34:12.002Z,15.48
2023-04-17T09:36:41.546Z,16.40
2023-04-17T09:39:20.458Z,16.45
2023-04-17T09:41:47.088Z,14.80
2023-04-17T09:44:25.809Z,15.13
2023-04-17T09:46:53.181Z,14.27
2023-04-17T09:49:34.425Z,15.60
2023-04-17T09:54:31.503Z,15.00
2023-04-17T09:57:02.627Z,15.60
2023-04-17T09:59:30.022Z,13.70
2023-04-17T10:01:57.074Z,14.95
2023-04-17T10:04:23.775Z,13.18
2023-04-17T10:06:50.608Z,12.65
2023-04-17T10:09:17.098Z,13.55
2023-04-17T10:11:47.349Z,13.68
2023-04-17T10:14:19.720Z,15.23
2023-04-17T10:16:48.167Z,13.95
2023-04-17T10:19:33.729Z,12.23
2023-04-17T10:22:27.916Z,13.25
2023-04-17T10:25:24.402Z,12.25
2023-04-17T10:27:53.380Z,12.02
2023-04-17T10:30:22.564Z,11.90
2023-04-17T10:33:21.638Z,11.07
2023-04-17T10:35:48.657Z,12.88
2023-04-17T10:38:16.282Z,12.55
2023-04-17T10:40:43.553Z,10.45
2023-04-17T10:43:15.342Z,12.20
2023-04-17T10:46:15.373Z,12.25
2023-04-17T10:48:52.805Z,12.20
2023-04-17T10:51:22.688Z,13.57
2023-04-17T10:53:55.708Z,13.43
2023-04-17T10:56:31.575Z,12.90
2023-04-17T10:59:02.887Z,12.35
2023-04-17T11:01:32.057Z,13.43
2023-04-17T11:04:01.637Z,13.18
2023-04-17T11:06:30.184Z,13.95
2023-04-17T11:08:57.642Z,12.27
2023-04-17T11:11:35.070Z,11.70
2023-04-17T11:14:14.869Z,12.00
2023-04-17T11:16:43.017Z,12.70
2023-04-17T11:19:10.694Z,11.70
2023-04-17T11:21:44.548Z,12.00
2023-04-17T11:24:11.350Z,11.32
2023-04-17T11:26:47.920Z,10.07
2023-04-17T11:29:15.674Z,9.73
2023-04-17T11:31:42.725Z,9.85
2023-04-17T11:34:09.870Z,9.55
2023-04-17T11:36:36.391Z,9.73
2023-04-17T11:39:03.527Z,9.40
2023-04-17T11:41:37.692Z,10.13
2023-04-17T11:44:04.269Z,10.20
2023-04-17T11:46:30.810Z,11.00
2023-04-17T11:48:57.436Z,10.88
2023-04-17T11:51:24.001Z,11.30
2023-04-17T11:53:50.604Z,11.13
2023-04-17T11:56:18.628Z,11.05
2023-04-17T11:58:52.357Z,11.70
2023-04-17T12:01:21.179Z,11.32
2023-04-17T12:03:48.108Z,11.93
2023-04-17T12:06:14.858Z,13.00
2023-04-17T12:08:47.663Z,12.38
2023-04-17T12:11:26.331Z,12.18
2023-04-17T12:13:53.533Z,12.15
2023-04-17T12:16:20.275Z,12.50
2023-04-17T12:18:46.885Z,12.15
2023-04-17T12:21:13.985Z,14.25
2023-04-17T12:23:41.465Z,13.07
2023-04-17T12:26:08.374Z,13.15
2023-04-17T12:28:35.660Z,12.23
2023-04-17T12:31:02.786Z,12.25
2023-04-17T12:33:29.292Z,12.45
2023-04-17T12:35:56.030Z,13.77
2023-04-17T12:38:23.474Z,13.00
2023-04-17T12:40:50.002Z,13.82
2023-04-17T12:43:16.496Z,13.80
2023-04-17T12:45:45.635Z,13.50
2023-04-17T12:48:13.252Z,12.45
2023-04-17T12:50:43.818Z,12.75
2023-04-17T12:53:14.392Z,13.02
2023-04-17T12:55:41.681Z,14.32
2023-04-17T12:58:10.050Z,15.45
2023-04-17T13:00:37.418Z,13.68
2023-04-17T13:03:05.127Z,14.43
2023-04-17T13:05:32.217Z,13.63
2023-04-17T13:07:59.006Z,13.93
2023-04-17T13:10:25.537Z,14.30
2023-04-17T13:12:52.055Z,13.25
2023-04-17T13:15:18.592Z,13.35
2023-04-17T13:17:45.426Z,13.10
2023-04-17T13:20:13.032Z,13.35
2023-04-17T13:22:39.659Z,12.55
2023-04-17T13:25:06.792Z,11.68
2023-04-17T13:27:33.454Z,13.32
2023-04-17T13:29:59.934Z,12.65
2023-04-17T13:32:26.522Z,11.90
2023-04-17T13:34:53.195Z,11.15
2023-04-17T13:37:20.526Z,12.63
2023-04-17T13:39:47.043Z,12.20
2023-04-17T13:42:15.617Z,12.40
2023-04-17T13:44:42.170Z,13.38
2023-04-17T13:47:09.157Z,14.00
2023-04-17T13:49:35.746Z,15.43
2023-04-17T13:52:03.209Z,14.38
2023-04-17T13:54:29.793Z,13.93
2023-04-17T13:56:57.351Z,16.02
2023-04-17T13:59:24.204Z,16.98
2023-04-17T14:01:50.803Z,17.08
2023-04-17T14:04:17.585Z,16.13
2023-04-17T14:06:44.433Z,16.67
2023-04-17T14:09:11.562Z,17.17
2023-04-17T14:11:38.431Z,18.02
2023-04-17T14:14:05.574Z,18.33
2023-04-17T14:16:32.132Z,18.35
2023-04-17T14:19:06.344Z,20.08
2023-04-17T14:21:39.618Z,20.10
2023-04-17T14:24:06.456Z,19.25
2023-04-17T14:26:33.177Z,19.58
2023-04-17T14:28:59.857Z,20.77
2023-04-17T14:31:26.493Z,19.40
2023-04-17T14:33:53.058Z,19.30
2023-04-17T14:36:19.567Z,20.50
2023-04-17T14:38:51.198Z,21.15
2023-04-17T14:41:17.830Z,22.30
2023-04-17T14:43:44.837Z,22.25
2023-04-17T14:46:11.523Z,23.13
2023-04-17T14:48:48.055Z,22.30
2023-04-17T14:51:22.337Z,23.48
2023-04-17T14:53:48.892Z,22.77
2023-04-17T14:56:15.924Z,23.23
2023-04-17T14:58:43.118Z,21.98
2023-04-17T15:01:09.742Z,22.33
2023-04-17T15:03:36.449Z,20.63
2023-04-17T15:06:03.511Z,21.73
2023-04-17T15:08:31.268Z,22.60
2023-04-17T15:10:58.492Z,20.60
2023-04-17T15:13:25.068Z,20.15
2023-04-17T15:15:51.878Z,19.63
2023-04-17T15:18:18.465Z,19.30
2023-04-17T15:20:46.255Z,19.17
2023-04-17T15:23:12.954Z,19.60
2023-04-17T15:25:39.718Z,19.83
2023-04-17T15:28:06.327Z,18.13
2023-04-17T15:30:32.830Z,16.65
2023-04-17T15:32:59.376Z,16.63
2023-04-17T15:35:25.999Z,17.58
2023-04-17T15:37:52.580Z,17.08
2023-04-17T15:40:19.059Z,15.98
2023-04-17T15:42:45.829Z,16.30
2023-04-17T15:45:12.409Z,14.57
2023-04-17T15:47:38.995Z,16.63
2023-04-17T15:50:06.204Z,16.58
2023-04-17T15:52:32.692Z,16.60
2023-04-17T15:54:59.188Z,18.15
2023-04-17T15:57:25.815Z,19.40
2023-04-17T15:59:52.465Z,19.90
2023-04-17T16:02:23.027Z,20.08
2023-04-17T16:04:53.114Z,19.92
2023-04-17T16:07:20.121Z,19.00
2023-04-17T16:09:48.180Z,18.92
2023-04-17T16:12:14.860Z,19.80
2023-04-17T16:14:45.013Z,19.85
2023-04-17T16:17:15.557Z,20.50
2023-04-17T16:19:42.229Z,21.55
2023-04-17T16:22:08.788Z,20.70
2023-04-17T16:24:35.771Z,21.90
2023-04-17T16:27:02.936Z,21.08
2023-04-17T16:29:29.988Z,21.58
2023-04-17T16:31:56.874Z,20.40
2023-04-17T16:34:23.600Z,19.60
2023-04-17T16:36:56.759Z,19.80
2023-04-17T16:39:24.161Z,19.05
2023-04-17T16:41:55.047Z,18.10
2023-04-17T16:44:26.863Z,17.20
2023-04-17T16:47:12.595Z,15.98
2023-04-17T16:49:40.490Z,16.98
2023-04-17T16:52:08.316Z,17.42
2023-04-17T16:54:39.795Z,17.00
2023-04-17T16:57:18.505Z,15.93
2023-04-17T16:59:55.586Z,16.40
2023-04-17T17:04:56.647Z,15.17
2023-04-17T17:07:23.884Z,18.80
2023-04-17T17:09:50.773Z,16.70
2023-04-17T17:12:17.674Z,17.08
2023-04-17T17:14:44.277Z,16.58
2023-04-17T17:17:10.820Z,17.90
2023-04-17T17:19:37.419Z,17.40
2023-04-17T17:22:04.009Z,18.73
2023-04-17T17:24:31.478Z,18.83
2023-04-17T17:26:58.125Z,19.42
2023-04-17T17:29:24.871Z,20.90
2023-04-17T17:31:51.500Z,22.55
2023-04-17T17:34:26.158Z,20.50
2023-04-17T17:36:53.853Z,21.65
2023-04-17T17:39:22.033Z,21.70
2023-04-17T17:41:49.198Z,21.55
2023-04-17T17:44:16.077Z,21.13
2023-04-17T17:46:42.635Z,22.02
2023-04-17T17:49:10.943Z,20.75
2023-04-17T17:51:37.739Z,19.33
2023-04-17T17:54:04.483Z,21.70
2023-04-17T17:56:31.120Z,21.52
2023-04-17T17:58:59.020Z,20.35
2023-04-17T18:01:25.840Z,20.30
2023-04-17T18:03:53.485Z,21.50
2023-04-17T18:06:20.928Z,21.27
2023-04-17T18:08:53.277Z,22.25
2023-04-17T18:11:20.834Z,21.25
2023-04-17T18:13:47.521Z,21.98
2023-04-17T18:16:14.448Z,21.10
2023-04-17T18:18:41.008Z,20.80
2023-04-17T18:21:08.570Z,21.15
2023-04-17T18:23:35.244Z,21.23
2023-04-17T18:26:03.006Z,20.13
2023-04-17T18:28:29.768Z,21.73
2023-04-17T18:30:56.655Z,22.80
2023-04-17T18:33:23.280Z,21.77
2023-04-17T18:35:49.993Z,22.25
2023-04-17T18:38:17.092Z,20.85
2023-04-17T18:40:44.392Z,23.02
2023-04-17T18:43:11.018Z,23.73
2023-04-17T18:45:37.655Z,20.27
2023-04-17T18:48:04.496Z,22.67
2023-04-17T18:50:31.213Z,22.42
2023-04-17T18:52:57.792Z,19.65
2023-04-17T18:55:24.368Z,21.10
2023-04-17T18:57:51.115Z,27.13
2023-04-17T19:00:17.726Z,24.58
2023-04-17T19:02:47.946Z,23.70
2023-04-17T19:05:14.694Z,24.20
2023-04-17T19:07:41.493Z,24.80
2023-04-17T19:10:08.546Z,24.83
2023-04-17T19:12:36.218Z,24.30
2023-04-17T19:15:03.552Z,27.00
2023-04-17T19:17:30.836Z,24.75
2023-04-17T19:19:57.640Z,26.17
2023-04-17T19:22:24.327Z,23.25
2023-04-17T19:24:52.941Z,26.65
2023-04-17T19:27:19.861Z,26.58
2023-04-17T19:29:47.260Z,27.63
2023-04-17T19:32:16.671Z,29.52
2023-04-17T19:34:44.294Z,28.75
2023-04-17T19:37:13.780Z,27.17
2023-04-17T19:39:41.205Z,30.70
2023-04-17T19:42:08.395Z,30.15
2023-04-17T19:44:35.048Z,29.50
2023-04-17T19:47:01.746Z,29.83
2023-04-17T19:49:28.921Z,28.17
2023-04-17T19:51:56.324Z,29.42
2023-04-17T19:54:35.565Z,32.53
2023-04-17T19:57:05.005Z,29.98
2023-04-17T19:59:31.915Z,29.73
2023-04-17T20:01:58.852Z,31.58
2023-04-17T20:04:29.021Z,30.25
2023-04-17T20:06:56.661Z,33.67
2023-04-17T20:09:23.621Z,31.60
2023-04-17T20:11:50.726Z,31.50
2023-04-17T20:14:19.551Z,31.77
2023-04-17T20:16:49.139Z,31.42
2023-04-17T20:19:16.914Z,30.50
2023-04-17T20:21:44.528Z,29.55
2023-04-17T20:24:12.896Z,27.88
2023-04-17T20:26:39.400Z,29.80
2023-04-17T20:29:05.953Z,30.23
2023-04-17T20:31:36.325Z,26.63
2023-04-17T20:34:03.693Z,27.90
2023-04-17T20:36:31.110Z,29.02
2023-04-17T20:38:57.631Z,28.10
2023-04-17T20:41:24.141Z,27.00
2023-04-17T20:44:00.466Z,26.85
2023-04-17T20:46:27.735Z,27.25
2023-04-17T20:48:54.434Z,27.17
2023-04-17T20:51:24.834Z,26.20
2023-04-17T20:53:51.958Z,28.40
2023-04-17T20:56:19.727Z,26.67
2023-04-17T20:58:46.223Z,26.77
2023-04-17T21:01:12.790Z,25.67
2023-04-17T21:03:39.504Z,27.08
2023-04-17T21:06:06.164Z,25.63
2023-04-17T21:08:32.646Z,24.80
2023-04-17T21:10:59.124Z,24.85
2023-04-17T21:13:25.629Z,25.83
2023-04-17T21:15:52.312Z,25.02
2023-04-17T21:18:18.845Z,24.23
2023-04-17T21:20:45.879Z,26.25
2023-04-17T21:23:12.403Z,26.02
2023-04-17T21:25:38.925Z,24.27
2023-04-17T21:28:05.749Z,24.30
2023-04-17T21:30:32.362Z,23.38
2023-04-17T21:32:58.929Z,23.30
2023-04-17T21:35:25.469Z,24.45
2023-04-17T21:37:52.019Z,24.90
2023-04-17T21:40:18.609Z,23.60
2023-04-17T21:42:45.215Z,23.00
2023-04-17T21:45:11.945Z,23.58
2023-04-17T21:47:38.557Z,23.05
2023-04-17T21:50:05.542Z,22.85
2023-04-17T21:52:32.066Z,23.52
2023-04-17T21:55:03.241Z,22.52
2023-04-17T21:57:31.263Z,23.40
2023-04-17T21:59:57.726Z,22.33
2023-04-17T22:02:24.315Z,21.40
2023-04-17T22:04:50.841Z,22.13
2023-04-17T22:07:18.492Z,20.08
2023-04-17T22:09:45.030Z,20.98
2023-04-17T22:12:15.037Z,20.88
2023-04-17T22:14:41.508Z,20.63
2023-04-17T22:17:07.995Z,20.83
2023-04-17T22:19:34.809Z,22.10
2023-04-17T22:22:01.353Z,19.90
2023-04-17T22:24:27.865Z,20.73
2023-04-17T22:26:54.543Z,21.08
2023-04-17T22:29:21.014Z,21.35
2023-04-17T22:31:49.295Z,22.33
2023-04-17T22:34:15.994Z,21.67
2023-04-17T22:36:42.503Z,21.27
2023-04-17T22:39:09.047Z,20.50
2023-04-17T22:41:35.594Z,20.95
2023-04-17T22:44:03.834Z,20.58
2023-04-17T22:46:30.597Z,21.27
2023-04-17T22:48:58.122Z,19.75
2023-04-17T22:51:24.649Z,19.92
2023-04-17T22:53:52.416Z,20.60
2023-04-17T22:56:19.050Z,19.95
2023-04-17T22:58:45.678Z,20.85
2023-04-17T23:01:12.201Z,19.88
2023-04-17T23:03:38.778Z,18.60
2023-04-17T23:06:05.390Z,19.60
2023-04-17T23:08:31.976Z,19.55
2023-04-17T23:11:02.055Z,19.13
2023-04-17T23:13:28.731Z,19.30
2023-04-17T23:15:55.282Z,17.77
2023-04-17T23:18:21.909Z,18.40
2023-04-17T23:20:48.419Z,18.88
2023-04-17T23:23:15.509Z,19.33
2023-04-17T23:25:42.139Z,18.73
2023-04-17T23:28:08.744Z,18.10
2023-04-17T23:30:35.385Z,18.40
2023-04-17T23:33:02.083Z,19.42
2023-04-17T23:35:28.751Z,18.35
2023-04-17T23:37:55.387Z,17.73
2023-04-17T23:40:21.980Z,17.83
2023-04-17T23:42:48.558Z,18.67
2023-04-17T23:45:15.257Z,18.75
2023-04-17T23:47:41.813Z,18.40
2023-04-17T23:50:08.894Z,19.88
2023-04-17T23:52:35.473Z,17.83
2023-04-17T23:55:02.884Z,17.58
2023-04-17T23:57:29.731Z,18.63
2023-04-17T23:59:56.279Z,17.50
